sensor_id;sensor_type;location;lat;lon;timestamp;P1;durP1;ratioP1;P2;durP2;ratioP2
19219;SDS011;9744;49.364;7.484;2022-12-24T00:01:48;21.10;;;2.97;;
19219;SDS011;9744;49.364;7.484;2022-12-24T00:04:16;16.08;;;3.20;;
19219;SDS011;9744;49.364;7.484;2022-12-24T00:06:43;18.08;;;2.85;;
19219;SDS011;9744;49.364;7.484;2022-12-24T00:09:11;16.05;;;2.70;;
19219;SDS011;9744;49.364;7.484;2022-12-24T00:11:38;21.38;;;3.38;;
19219;SDS011;9744;49.364;7.484;2022-12-24T00:14:05;18.45;;;2.85;;
19219;SDS011;9744;49.364;7.484;2022-12-24T00:16:32;23.95;;;3.00;;
19219;SDS011;9744;49.364;7.484;2022-12-24T00:19:00;27.30;;;4.80;;
19219;SDS011;9744;49.364;7.484;2022-12-24T00:21:28;24.42;;;4.28;;
19219;SDS011;9744;49.364;7.484;2022-12-24T00:23:55;18.30;;;2.80;;
19219;SDS011;9744;49.364;7.484;2022-12-24T00:26:22;24.92;;;3.45;;
19219;SDS011;9744;49.364;7.484;2022-12-24T00:28:50;25.67;;;3.35;;
19219;SDS011;9744;49.364;7.484;2022-12-24T00:31:17;22.65;;;3.97;;
19219;SDS011;9744;49.364;7.484;2022-12-24T00:33:45;23.73;;;3.22;;
19219;SDS011;9744;49.364;7.484;2022-12-24T00:36:12;22.50;;;4.15;;
19219;SDS011;9744;49.364;7.484;2022-12-24T00:38:42;16.70;;;2.75;;
19219;SDS011;9744;49.364;7.484;2022-12-24T00:41:10;20.00;;;3.17;;
19219;SDS011;9744;49.364;7.484;2022-12-24T00:43:49;25.70;;;4.63;;
19219;SDS011;9744;49.364;7.484;2022-12-24T00:46:17;22.92;;;3.10;;
19219;SDS011;9744;49.364;7.484;2022-12-24T00:48:45;25.23;;;2.63;;
19219;SDS011;9744;49.364;7.484;2022-12-24T00:51:13;23.35;;;3.38;;
19219;SDS011;9744;49.364;7.484;2022-12-24T00:53:42;19.88;;;2.53;;
19219;SDS011;9744;49.364;7.484;2022-12-24T00:56:09;27.40;;;3.10;;
19219;SDS011;9744;49.364;7.484;2022-12-24T00:58:36;20.65;;;2.72;;
19219;SDS011;9744;49.364;7.484;2022-12-24T01:01:04;16.48;;;2.70;;
19219;SDS011;9744;49.364;7.484;2022-12-24T01:03:32;19.02;;;2.42;;
19219;SDS011;9744;49.364;7.484;2022-12-24T01:06:01;25.88;;;3.35;;
19219;SDS011;9744;49.364;7.484;2022-12-24T01:08:28;23.27;;;3.90;;
19219;SDS011;9744;49.364;7.484;2022-12-24T01:10:57;20.98;;;2.83;;
19219;SDS011;9744;49.364;7.484;2022-12-24T01:13:25;18.52;;;2.80;;
19219;SDS011;9744;49.364;7.484;2022-12-24T01:15:52;13.02;;;2.45;;
19219;SDS011;9744;49.364;7.484;2022-12-24T01:18:19;16.95;;;2.40;;
19219;SDS011;9744;49.364;7.484;2022-12-24T01:20:54;22.90;;;2.83;;
19219;SDS011;9744;49.364;7.484;2022-12-24T01:23:22;20.90;;;2.95;;
19219;SDS011;9744;49.364;7.484;2022-12-24T01:25:49;16.35;;;3.25;;
19219;SDS011;9744;49.364;7.484;2022-12-24T01:28:18;24.10;;;3.08;;
19219;SDS011;9744;49.364;7.484;2022-12-24T01:30:46;17.70;;;2.53;;
19219;SDS011;9744;49.364;7.484;2022-12-24T01:33:14;23.52;;;2.80;;
19219;SDS011;9744;49.364;7.484;2022-12-24T01:35:41;22.63;;;2.92;;
19219;SDS011;9744;49.364;7.484;2022-12-24T01:38:09;27.38;;;2.92;;
19219;SDS011;9744;49.364;7.484;2022-12-24T01:40:38;18.08;;;2.58;;
19219;SDS011;9744;49.364;7.484;2022-12-24T01:43:28;16.73;;;3.38;;
19219;SDS011;9744;49.364;7.484;2022-12-24T01:45:57;33.33;;;3.50;;
19219;SDS011;9744;49.364;7.484;2022-12-24T01:48:29;19.85;;;2.83;;
19219;SDS011;9744;49.364;7.484;2022-12-24T01:51:01;21.58;;;2.67;;
19219;SDS011;9744;49.364;7.484;2022-12-24T01:53:32;23.23;;;3.00;;
19219;SDS011;9744;49.364;7.484;2022-12-24T01:56:02;24.38;;;2.80;;
19219;SDS011;9744;49.364;7.484;2022-12-24T01:58:33;21.13;;;3.03;;
19219;SDS011;9744;49.364;7.484;2022-12-24T02:01:05;24.58;;;3.00;;
19219;SDS011;9744;49.364;7.484;2022-12-24T02:03:32;18.38;;;3.25;;
19219;SDS011;9744;49.364;7.484;2022-12-24T02:06:00;23.30;;;2.88;;
19219;SDS011;9744;49.364;7.484;2022-12-24T02:08:27;23.23;;;3.53;;
19219;SDS011;9744;49.364;7.484;2022-12-24T02:11:09;22.50;;;3.28;;
19219;SDS011;9744;49.364;7.484;2022-12-24T02:13:38;26.35;;;3.53;;
19219;SDS011;9744;49.364;7.484;2022-12-24T02:16:08;32.83;;;3.33;;
19219;SDS011;9744;49.364;7.484;2022-12-24T02:18:45;20.67;;;2.75;;
19219;SDS011;9744;49.364;7.484;2022-12-24T02:21:25;31.55;;;3.40;;
19219;SDS011;9744;49.364;7.484;2022-12-24T02:24:10;24.83;;;3.83;;
19219;SDS011;9744;49.364;7.484;2022-12-24T02:27:00;31.38;;;3.65;;
19219;SDS011;9744;49.364;7.484;2022-12-24T02:32:44;24.35;;;3.65;;
19219;SDS011;9744;49.364;7.484;2022-12-24T02:35:32;28.52;;;4.07;;
19219;SDS011;9744;49.364;7.484;2022-12-24T02:38:07;30.35;;;3.42;;
19219;SDS011;9744;49.364;7.484;2022-12-24T02:40:42;36.55;;;4.28;;
19219;SDS011;9744;49.364;7.484;2022-12-24T02:43:15;25.70;;;3.47;;
19219;SDS011;9744;49.364;7.484;2022-12-24T02:45:48;31.65;;;3.90;;
19219;SDS011;9744;49.364;7.484;2022-12-24T02:48:19;22.70;;;3.47;;
19219;SDS011;9744;49.364;7.484;2022-12-24T02:50:58;27.83;;;4.60;;
19219;SDS011;9744;49.364;7.484;2022-12-24T02:53:28;27.20;;;3.95;;
19219;SDS011;9744;49.364;7.484;2022-12-24T02:56:10;29.77;;;3.83;;
19219;SDS011;9744;49.364;7.484;2022-12-24T02:58:52;32.03;;;3.80;;
19219;SDS011;9744;49.364;7.484;2022-12-24T03:01:37;23.75;;;3.47;;
19219;SDS011;9744;49.364;7.484;2022-12-24T03:04:15;38.22;;;3.67;;
19219;SDS011;9744;49.364;7.484;2022-12-24T03:07:05;31.58;;;3.45;;
19219;SDS011;9744;49.364;7.484;2022-12-24T03:09:38;31.55;;;4.18;;
19219;SDS011;9744;49.364;7.484;2022-12-24T03:12:23;38.08;;;4.38;;
19219;SDS011;9744;49.364;7.484;2022-12-24T03:14:55;33.33;;;4.07;;
19219;SDS011;9744;49.364;7.484;2022-12-24T03:17:24;36.97;;;5.20;;
19219;SDS011;9744;49.364;7.484;2022-12-24T03:19:53;25.02;;;3.95;;
19219;SDS011;9744;49.364;7.484;2022-12-24T03:22:20;30.42;;;4.00;;
19219;SDS011;9744;49.364;7.484;2022-12-24T03:24:49;29.48;;;3.72;;
19219;SDS011;9744;49.364;7.484;2022-12-24T03:27:17;34.95;;;3.95;;
19219;SDS011;9744;49.364;7.484;2022-12-24T03:29:45;30.27;;;3.92;;
19219;SDS011;9744;49.364;7.484;2022-12-24T03:32:12;41.40;;;4.82;;
19219;SDS011;9744;49.364;7.484;2022-12-24T03:34:42;31.73;;;4.95;;
19219;SDS011;9744;49.364;7.484;2022-12-24T03:37:09;40.63;;;4.60;;
19219;SDS011;9744;49.364;7.484;2022-12-24T03:39:36;32.92;;;4.20;;
19219;SDS011;9744;49.364;7.484;2022-12-24T03:42:03;43.63;;;5.20;;
19219;SDS011;9744;49.364;7.484;2022-12-24T03:44:30;50.28;;;6.68;;
19219;SDS011;9744;49.364;7.484;2022-12-24T03:46:57;35.00;;;4.93;;
19219;SDS011;9744;49.364;7.484;2022-12-24T03:49:25;45.20;;;7.32;;
19219;SDS011;9744;49.364;7.484;2022-12-24T03:51:53;46.40;;;6.60;;
19219;SDS011;9744;49.364;7.484;2022-12-24T03:54:20;35.83;;;5.03;;
19219;SDS011;9744;49.364;7.484;2022-12-24T03:56:48;37.83;;;4.72;;
19219;SDS011;9744;49.364;7.484;2022-12-24T03:59:15;33.28;;;5.15;;
19219;SDS011;9744;49.364;7.484;2022-12-24T04:01:42;44.28;;;4.45;;
19219;SDS011;9744;49.364;7.484;2022-12-24T04:04:09;39.08;;;6.22;;
19219;SDS011;9744;49.364;7.484;2022-12-24T04:06:37;32.53;;;4.32;;
19219;SDS011;9744;49.364;7.484;2022-12-24T04:09:05;36.90;;;4.68;;
19219;SDS011;9744;49.364;7.484;2022-12-24T04:11:34;41.80;;;6.22;;
19219;SDS011;9744;49.364;7.484;2022-12-24T04:14:01;46.30;;;5.43;;
19219;SDS011;9744;49.364;7.484;2022-12-24T04:16:28;36.28;;;5.03;;
19219;SDS011;9744;49.364;7.484;2022-12-24T04:18:55;45.63;;;4.97;;
19219;SDS011;9744;49.364;7.484;2022-12-24T04:21:22;46.03;;;5.22;;
19219;SDS011;9744;49.364;7.484;2022-12-24T04:23:52;35.70;;;5.85;;
19219;SDS011;9744;49.364;7.484;2022-12-24T04:26:20;47.92;;;5.25;;
19219;SDS011;9744;49.364;7.484;2022-12-24T04:28:47;46.20;;;5.88;;
19219;SDS011;9744;49.364;7.484;2022-12-24T04:31:15;43.78;;;5.15;;
19219;SDS011;9744;49.364;7.484;2022-12-24T04:33:43;47.80;;;6.25;;
19219;SDS011;9744;49.364;7.484;2022-12-24T04:36:13;43.20;;;5.53;;
19219;SDS011;9744;49.364;7.484;2022-12-24T04:38:42;59.40;;;6.47;;
19219;SDS011;9744;49.364;7.484;2022-12-24T04:41:12;47.47;;;6.22;;
19219;SDS011;9744;49.364;7.484;2022-12-24T04:43:42;50.47;;;5.18;;
19219;SDS011;9744;49.364;7.484;2022-12-24T04:46:10;40.78;;;5.38;;
19219;SDS011;9744;49.364;7.484;2022-12-24T04:48:39;47.75;;;5.40;;
19219;SDS011;9744;49.364;7.484;2022-12-24T04:51:07;43.22;;;5.32;;
19219;SDS011;9744;49.364;7.484;2022-12-24T04:53:35;46.05;;;5.75;;
19219;SDS011;9744;49.364;7.484;2022-12-24T04:56:05;46.95;;;6.50;;
19219;SDS011;9744;49.364;7.484;2022-12-24T04:58:34;42.17;;;4.57;;
19219;SDS011;9744;49.364;7.484;2022-12-24T05:01:04;50.72;;;6.85;;
19219;SDS011;9744;49.364;7.484;2022-12-24T05:03:32;37.95;;;4.45;;
19219;SDS011;9744;49.364;7.484;2022-12-24T05:06:01;48.72;;;6.93;;
19219;SDS011;9744;49.364;7.484;2022-12-24T05:08:28;40.75;;;6.00;;
19219;SDS011;9744;49.364;7.484;2022-12-24T05:10:55;58.95;;;7.03;;
19219;SDS011;9744;49.364;7.484;2022-12-24T05:13:23;46.30;;;5.45;;
19219;SDS011;9744;49.364;7.484;2022-12-24T05:15:51;41.03;;;5.32;;
19219;SDS011;9744;49.364;7.484;2022-12-24T05:18:19;52.58;;;5.18;;
19219;SDS011;9744;49.364;7.484;2022-12-24T05:20:47;45.28;;;6.15;;
19219;SDS011;9744;49.364;7.484;2022-12-24T05:23:15;45.55;;;4.82;;
19219;SDS011;9744;49.364;7.484;2022-12-24T05:26:00;50.83;;;6.15;;
19219;SDS011;9744;49.364;7.484;2022-12-24T05:28:46;48.13;;;6.85;;
19219;SDS011;9744;49.364;7.484;2022-12-24T05:31:14;40.45;;;4.95;;
19219;SDS011;9744;49.364;7.484;2022-12-24T05:33:45;46.22;;;5.85;;
19219;SDS011;9744;49.364;7.484;2022-12-24T05:36:12;55.97;;;5.78;;
19219;SDS011;9744;49.364;7.484;2022-12-24T05:38:40;45.60;;;5.88;;
19219;SDS011;9744;49.364;7.484;2022-12-24T05:41:08;53.47;;;6.13;;
19219;SDS011;9744;49.364;7.484;2022-12-24T05:43:35;47.35;;;6.38;;
19219;SDS011;9744;49.364;7.484;2022-12-24T05:46:04;37.55;;;5.25;;
19219;SDS011;9744;49.364;7.484;2022-12-24T05:48:32;39.10;;;6.28;;
19219;SDS011;9744;49.364;7.484;2022-12-24T05:51:04;49.78;;;4.85;;
19219;SDS011;9744;49.364;7.484;2022-12-24T05:53:32;43.47;;;6.50;;
19219;SDS011;9744;49.364;7.484;2022-12-24T05:56:04;38.50;;;4.78;;
19219;SDS011;9744;49.364;7.484;2022-12-24T05:58:32;44.05;;;4.32;;
19219;SDS011;9744;49.364;7.484;2022-12-24T06:01:00;43.15;;;5.32;;
19219;SDS011;9744;49.364;7.484;2022-12-24T06:03:28;45.03;;;5.60;;
19219;SDS011;9744;49.364;7.484;2022-12-24T06:05:59;49.83;;;6.28;;
19219;SDS011;9744;49.364;7.484;2022-12-24T06:08:29;45.53;;;6.28;;
19219;SDS011;9744;49.364;7.484;2022-12-24T06:10:58;47.30;;;5.07;;
19219;SDS011;9744;49.364;7.484;2022-12-24T06:13:26;42.97;;;5.07;;
19219;SDS011;9744;49.364;7.484;2022-12-24T06:15:54;44.03;;;6.25;;
19219;SDS011;9744;49.364;7.484;2022-12-24T06:18:21;49.08;;;5.75;;
19219;SDS011;9744;49.364;7.484;2022-12-24T06:20:49;46.00;;;6.53;;
19219;SDS011;9744;49.364;7.484;2022-12-24T06:23:17;35.13;;;4.80;;
19219;SDS011;9744;49.364;7.484;2022-12-24T06:25:46;35.47;;;4.82;;
19219;SDS011;9744;49.364;7.484;2022-12-24T06:28:13;41.65;;;5.40;;
19219;SDS011;9744;49.364;7.484;2022-12-24T06:30:40;44.40;;;4.50;;
19219;SDS011;9744;49.364;7.484;2022-12-24T06:33:11;40.97;;;6.07;;
19219;SDS011;9744;49.364;7.484;2022-12-24T06:35:38;50.53;;;5.30;;
19219;SDS011;9744;49.364;7.484;2022-12-24T06:38:06;50.70;;;6.20;;
19219;SDS011;9744;49.364;7.484;2022-12-24T06:40:33;43.35;;;5.15;;
19219;SDS011;9744;49.364;7.484;2022-12-24T06:43:01;52.25;;;5.85;;
19219;SDS011;9744;49.364;7.484;2022-12-24T06:45:29;52.30;;;6.00;;
19219;SDS011;9744;49.364;7.484;2022-12-24T06:47:56;54.67;;;6.22;;
19219;SDS011;9744;49.364;7.484;2022-12-24T06:50:24;45.95;;;6.43;;
19219;SDS011;9744;49.364;7.484;2022-12-24T06:52:51;44.88;;;5.15;;
19219;SDS011;9744;49.364;7.484;2022-12-24T06:55:19;46.40;;;6.07;;
19219;SDS011;9744;49.364;7.484;2022-12-24T06:57:46;44.75;;;5.60;;
19219;SDS011;9744;49.364;7.484;2022-12-24T07:00:15;47.78;;;5.03;;
19219;SDS011;9744;49.364;7.484;2022-12-24T07:02:43;50.45;;;7.05;;
19219;SDS011;9744;49.364;7.484;2022-12-24T07:05:11;55.35;;;5.72;;
19219;SDS011;9744;49.364;7.484;2022-12-24T07:07:39;45.33;;;5.70;;
19219;SDS011;9744;49.364;7.484;2022-12-24T07:10:09;44.53;;;6.00;;
19219;SDS011;9744;49.364;7.484;2022-12-24T07:12:38;67.60;;;6.07;;
19219;SDS011;9744;49.364;7.484;2022-12-24T07:15:05;50.65;;;6.38;;
19219;SDS011;9744;49.364;7.484;2022-12-24T07:17:35;49.47;;;6.60;;
19219;SDS011;9744;49.364;7.484;2022-12-24T07:20:02;43.03;;;5.57;;
19219;SDS011;9744;49.364;7.484;2022-12-24T07:22:30;46.95;;;5.28;;
19219;SDS011;9744;49.364;7.484;2022-12-24T07:24:57;44.72;;;6.22;;
19219;SDS011;9744;49.364;7.484;2022-12-24T07:27:24;54.20;;;5.85;;
19219;SDS011;9744;49.364;7.484;2022-12-24T07:29:51;65.78;;;6.95;;
19219;SDS011;9744;49.364;7.484;2022-12-24T07:32:19;46.95;;;6.13;;
19219;SDS011;9744;49.364;7.484;2022-12-24T07:34:47;49.50;;;6.18;;
19219;SDS011;9744;49.364;7.484;2022-12-24T07:37:14;45.63;;;5.97;;
19219;SDS011;9744;49.364;7.484;2022-12-24T07:39:42;55.05;;;6.00;;
19219;SDS011;9744;49.364;7.484;2022-12-24T07:42:09;42.65;;;5.43;;
19219;SDS011;9744;49.364;7.484;2022-12-24T07:44:36;66.38;;;6.15;;
19219;SDS011;9744;49.364;7.484;2022-12-24T07:47:03;56.28;;;5.80;;
19219;SDS011;9744;49.364;7.484;2022-12-24T07:49:30;42.22;;;5.63;;
19219;SDS011;9744;49.364;7.484;2022-12-24T07:52:00;54.60;;;6.00;;
19219;SDS011;9744;49.364;7.484;2022-12-24T07:54:27;60.30;;;7.38;;
19219;SDS011;9744;49.364;7.484;2022-12-24T07:56:54;41.42;;;5.60;;
19219;SDS011;9744;49.364;7.484;2022-12-24T07:59:22;46.42;;;5.18;;
19219;SDS011;9744;49.364;7.484;2022-12-24T08:01:49;53.28;;;5.70;;
19219;SDS011;9744;49.364;7.484;2022-12-24T08:04:16;50.47;;;6.25;;
19219;SDS011;9744;49.364;7.484;2022-12-24T08:06:43;67.30;;;6.07;;
19219;SDS011;9744;49.364;7.484;2022-12-24T08:09:12;41.70;;;5.22;;
19219;SDS011;9744;49.364;7.484;2022-12-24T08:11:39;50.92;;;5.32;;
19219;SDS011;9744;49.364;7.484;2022-12-24T08:14:06;54.28;;;7.10;;
19219;SDS011;9744;49.364;7.484;2022-12-24T08:16:34;56.40;;;6.95;;
19219;SDS011;9744;49.364;7.484;2022-12-24T08:19:01;45.80;;;5.43;;
19219;SDS011;9744;49.364;7.484;2022-12-24T08:21:28;52.58;;;6.13;;
19219;SDS011;9744;49.364;7.484;2022-12-24T08:23:55;49.97;;;6.20;;
19219;SDS011;9744;49.364;7.484;2022-12-24T08:26:23;58.75;;;6.55;;
19219;SDS011;9744;49.364;7.484;2022-12-24T08:28:50;51.63;;;5.80;;
19219;SDS011;9744;49.364;7.484;2022-12-24T08:31:18;54.95;;;7.78;;
19219;SDS011;9744;49.364;7.484;2022-12-24T08:33:45;62.70;;;7.18;;
19219;SDS011;9744;49.364;7.484;2022-12-24T08:36:12;51.95;;;6.00;;
19219;SDS011;9744;49.364;7.484;2022-12-24T08:38:39;58.10;;;5.60;;
19219;SDS011;9744;49.364;7.484;2022-12-24T08:41:06;45.67;;;6.60;;
19219;SDS011;9744;49.364;7.484;2022-12-24T08:43:35;48.28;;;5.65;;
19219;SDS011;9744;49.364;7.484;2022-12-24T08:46:03;49.22;;;6.22;;
19219;SDS011;9744;49.364;7.484;2022-12-24T08:48:31;57.58;;;8.30;;
19219;SDS011;9744;49.364;7.484;2022-12-24T08:50:58;44.90;;;5.85;;
19219;SDS011;9744;49.364;7.484;2022-12-24T08:53:26;55.97;;;5.35;;
19219;SDS011;9744;49.364;7.484;2022-12-24T08:55:59;49.65;;;6.28;;
19219;SDS011;9744;49.364;7.484;2022-12-24T08:58:27;52.55;;;5.70;;
19219;SDS011;9744;49.364;7.484;2022-12-24T09:00:56;46.53;;;6.28;;
19219;SDS011;9744;49.364;7.484;2022-12-24T09:03:24;59.00;;;7.32;;
19219;SDS011;9744;49.364;7.484;2022-12-24T09:05:51;51.38;;;6.05;;
19219;SDS011;9744;49.364;7.484;2022-12-24T09:08:19;54.05;;;7.00;;
19219;SDS011;9744;49.364;7.484;2022-12-24T09:10:46;58.05;;;8.20;;
19219;SDS011;9744;49.364;7.484;2022-12-24T09:13:13;51.95;;;6.65;;
19219;SDS011;9744;49.364;7.484;2022-12-24T09:15:40;53.95;;;7.72;;
19219;SDS011;9744;49.364;7.484;2022-12-24T09:18:09;51.75;;;6.00;;
19219;SDS011;9744;49.364;7.484;2022-12-24T09:20:36;52.58;;;7.18;;
19219;SDS011;9744;49.364;7.484;2022-12-24T09:23:04;52.78;;;6.00;;
19219;SDS011;9744;49.364;7.484;2022-12-24T09:25:31;48.70;;;6.35;;
19219;SDS011;9744;49.364;7.484;2022-12-24T09:27:58;46.75;;;6.10;;
19219;SDS011;9744;49.364;7.484;2022-12-24T09:30:25;49.28;;;5.85;;
19219;SDS011;9744;49.364;7.484;2022-12-24T09:32:52;48.10;;;6.78;;
19219;SDS011;9744;49.364;7.484;2022-12-24T09:35:21;64.18;;;7.53;;
19219;SDS011;9744;49.364;7.484;2022-12-24T09:37:48;44.38;;;5.97;;
19219;SDS011;9744;49.364;7.484;2022-12-24T09:40:28;43.42;;;5.72;;
19219;SDS011;9744;49.364;7.484;2022-12-24T09:43:01;55.42;;;7.28;;
19219;SDS011;9744;49.364;7.484;2022-12-24T09:45:37;43.63;;;6.82;;
19219;SDS011;9744;49.364;7.484;2022-12-24T09:48:11;46.33;;;7.00;;
19219;SDS011;9744;49.364;7.484;2022-12-24T09:50:43;43.28;;;6.93;;
19219;SDS011;9744;49.364;7.484;2022-12-24T09:53:17;44.25;;;6.45;;
19219;SDS011;9744;49.364;7.484;2022-12-24T09:55:47;36.97;;;7.60;;
19219;SDS011;9744;49.364;7.484;2022-12-24T09:58:19;38.63;;;5.78;;
19219;SDS011;9744;49.364;7.484;2022-12-24T10:00:51;45.15;;;7.30;;
19219;SDS011;9744;49.364;7.484;2022-12-24T10:03:19;53.50;;;7.53;;
19219;SDS011;9744;49.364;7.484;2022-12-24T10:05:50;52.78;;;5.88;;
19219;SDS011;9744;49.364;7.484;2022-12-24T10:08:27;54.97;;;7.68;;
19219;SDS011;9744;49.364;7.484;2022-12-24T10:11:02;50.80;;;6.63;;
19219;SDS011;9744;49.364;7.484;2022-12-24T10:13:45;41.70;;;8.93;;
19219;SDS011;9744;49.364;7.484;2022-12-24T10:16:22;42.95;;;7.78;;
19219;SDS011;9744;49.364;7.484;2022-12-24T10:18:55;41.03;;;7.53;;
19219;SDS011;9744;49.364;7.484;2022-12-24T10:21:33;51.67;;;9.00;;
19219;SDS011;9744;49.364;7.484;2022-12-24T10:24:06;39.60;;;7.38;;
19219;SDS011;9744;49.364;7.484;2022-12-24T10:26:43;42.25;;;8.52;;
19219;SDS011;9744;49.364;7.484;2022-12-24T10:29:12;48.22;;;6.38;;
19219;SDS011;9744;49.364;7.484;2022-12-24T10:31:44;51.85;;;6.82;;
19219;SDS011;9744;49.364;7.484;2022-12-24T10:34:19;44.55;;;6.88;;
19219;SDS011;9744;49.364;7.484;2022-12-24T10:36:50;45.90;;;6.15;;
19219;SDS011;9744;49.364;7.484;2022-12-24T10:39:18;38.22;;;6.50;;
19219;SDS011;9744;49.364;7.484;2022-12-24T10:41:49;39.92;;;6.80;;
19219;SDS011;9744;49.364;7.484;2022-12-24T10:44:18;46.05;;;6.60;;
19219;SDS011;9744;49.364;7.484;2022-12-24T10:46:48;45.50;;;8.65;;
19219;SDS011;9744;49.364;7.484;2022-12-24T10:49:16;46.53;;;6.00;;
19219;SDS011;9744;49.364;7.484;2022-12-24T10:51:46;44.97;;;8.32;;
19219;SDS011;9744;49.364;7.484;2022-12-24T10:54:19;42.60;;;6.70;;
19219;SDS011;9744;49.364;7.484;2022-12-24T10:56:48;38.75;;;6.78;;
19219;SDS011;9744;49.364;7.484;2022-12-24T10:59:24;46.55;;;6.22;;
19219;SDS011;9744;49.364;7.484;2022-12-24T11:01:54;40.83;;;7.72;;
19219;SDS011;9744;49.364;7.484;2022-12-24T11:04:24;34.63;;;6.20;;
19219;SDS011;9744;49.364;7.484;2022-12-24T11:06:56;34.97;;;5.60;;
19219;SDS011;9744;49.364;7.484;2022-12-24T11:09:26;41.15;;;5.88;;
19219;SDS011;9744;49.364;7.484;2022-12-24T11:11:54;34.65;;;6.00;;
19219;SDS011;9744;49.364;7.484;2022-12-24T11:14:23;43.97;;;5.18;;
19219;SDS011;9744;49.364;7.484;2022-12-24T11:16:52;45.92;;;5.13;;
19219;SDS011;9744;49.364;7.484;2022-12-24T11:19:25;44.63;;;5.45;;
19219;SDS011;9744;49.364;7.484;2022-12-24T11:21:58;42.08;;;6.85;;
19219;SDS011;9744;49.364;7.484;2022-12-24T11:24:29;36.85;;;5.45;;
19219;SDS011;9744;49.364;7.484;2022-12-24T11:30:12;32.17;;;7.30;;
19219;SDS011;9744;49.364;7.484;2022-12-24T11:33:15;40.42;;;6.00;;
19219;SDS011;9744;49.364;7.484;2022-12-24T11:35:48;45.25;;;7.03;;
19219;SDS011;9744;49.364;7.484;2022-12-24T11:38:20;42.28;;;5.25;;
19219;SDS011;9744;49.364;7.484;2022-12-24T11:40:49;53.97;;;6.60;;
19219;SDS011;9744;49.364;7.484;2022-12-24T11:43:23;43.95;;;6.88;;
19219;SDS011;9744;49.364;7.484;2022-12-24T11:46:12;42.30;;;6.35;;
19219;SDS011;9744;49.364;7.484;2022-12-24T11:48:44;45.97;;;6.13;;
19219;SDS011;9744;49.364;7.484;2022-12-24T11:51:23;43.47;;;7.03;;
19219;SDS011;9744;49.364;7.484;2022-12-24T11:53:57;46.47;;;6.07;;
19219;SDS011;9744;49.364;7.484;2022-12-24T11:56:32;53.00;;;7.38;;
19219;SDS011;9744;49.364;7.484;2022-12-24T11:59:04;39.03;;;7.63;;
19219;SDS011;9744;49.364;7.484;2022-12-24T12:01:40;45.95;;;7.20;;
19219;SDS011;9744;49.364;7.484;2022-12-24T12:04:14;41.15;;;5.80;;
19219;SDS011;9744;49.364;7.484;2022-12-24T12:06:45;45.47;;;5.82;;
19219;SDS011;9744;49.364;7.484;2022-12-24T12:09:18;48.50;;;5.75;;
19219;SDS011;9744;49.364;7.484;2022-12-24T12:11:49;29.13;;;4.97;;
19219;SDS011;9744;49.364;7.484;2022-12-24T12:14:21;38.65;;;4.70;;
19219;SDS011;9744;49.364;7.484;2022-12-24T12:16:55;34.58;;;5.70;;
19219;SDS011;9744;49.364;7.484;2022-12-24T12:19:30;37.97;;;6.03;;
19219;SDS011;9744;49.364;7.484;2022-12-24T12:22:03;42.38;;;6.70;;
19219;SDS011;9744;49.364;7.484;2022-12-24T12:24:35;40.80;;;6.88;;
19219;SDS011;9744;49.364;7.484;2022-12-24T12:27:10;35.08;;;6.28;;
19219;SDS011;9744;49.364;7.484;2022-12-24T12:29:44;27.65;;;5.38;;
19219;SDS011;9744;49.364;7.484;2022-12-24T12:32:20;22.42;;;4.95;;
19219;SDS011;9744;49.364;7.484;2022-12-24T12:34:54;37.08;;;5.60;;
19219;SDS011;9744;49.364;7.484;2022-12-24T12:37:27;28.83;;;6.60;;
19219;SDS011;9744;49.364;7.484;2022-12-24T12:40:00;31.00;;;6.15;;
19219;SDS011;9744;49.364;7.484;2022-12-24T12:42:28;30.17;;;6.13;;
19219;SDS011;9744;49.364;7.484;2022-12-24T12:45:01;41.75;;;8.02;;
19219;SDS011;9744;49.364;7.484;2022-12-24T12:47:51;46.33;;;10.20;;
19219;SDS011;9744;49.364;7.484;2022-12-24T12:50:30;42.63;;;8.40;;
19219;SDS011;9744;49.364;7.484;2022-12-24T12:56:03;46.00;;;7.57;;
19219;SDS011;9744;49.364;7.484;2022-12-24T12:58:40;46.10;;;8.18;;
19219;SDS011;9744;49.364;7.484;2022-12-24T13:01:13;44.40;;;9.02;;
19219;SDS011;9744;49.364;7.484;2022-12-24T13:04:00;46.25;;;9.45;;
19219;SDS011;9744;49.364;7.484;2022-12-24T13:07:06;58.40;;;9.15;;
19219;SDS011;9744;49.364;7.484;2022-12-24T13:10:00;41.88;;;8.45;;
19219;SDS011;9744;49.364;7.484;2022-12-24T13:13:05;52.65;;;7.57;;
19219;SDS011;9744;49.364;7.484;2022-12-24T13:16:02;52.22;;;8.25;;
19219;SDS011;9744;49.364;7.484;2022-12-24T13:18:49;60.20;;;8.73;;
19219;SDS011;9744;49.364;7.484;2022-12-24T13:21:26;47.53;;;8.48;;
19219;SDS011;9744;49.364;7.484;2022-12-24T13:24:03;53.28;;;8.55;;
19219;SDS011;9744;49.364;7.484;2022-12-24T13:26:32;44.47;;;8.38;;
19219;SDS011;9744;49.364;7.484;2022-12-24T13:40:56;52.92;;;8.77;;
19219;SDS011;9744;49.364;7.484;2022-12-24T13:44:03;50.78;;;8.45;;
19219;SDS011;9744;49.364;7.484;2022-12-24T13:46:46;49.83;;;8.35;;
19219;SDS011;9744;49.364;7.484;2022-12-24T13:49:17;48.30;;;6.32;;
19219;SDS011;9744;49.364;7.484;2022-12-24T13:51:46;51.83;;;8.02;;
19219;SDS011;9744;49.364;7.484;2022-12-24T13:54:14;38.65;;;7.75;;
19219;SDS011;9744;49.364;7.484;2022-12-24T13:56:47;47.38;;;7.72;;
19219;SDS011;9744;49.364;7.484;2022-12-24T13:59:22;51.63;;;9.73;;
19219;SDS011;9744;49.364;7.484;2022-12-24T14:01:56;43.50;;;9.02;;
19219;SDS011;9744;49.364;7.484;2022-12-24T14:04:25;47.90;;;7.43;;
19219;SDS011;9744;49.364;7.484;2022-12-24T14:06:55;51.80;;;11.82;;
19219;SDS011;9744;49.364;7.484;2022-12-24T14:09:25;50.05;;;8.32;;
19219;SDS011;9744;49.364;7.484;2022-12-24T14:12:14;43.58;;;7.90;;
19219;SDS011;9744;49.364;7.484;2022-12-24T14:14:57;50.55;;;8.50;;
19219;SDS011;9744;49.364;7.484;2022-12-24T14:17:46;44.88;;;6.28;;
19219;SDS011;9744;49.364;7.484;2022-12-24T14:20:14;42.90;;;6.88;;
19219;SDS011;9744;49.364;7.484;2022-12-24T14:22:43;39.28;;;6.45;;
19219;SDS011;9744;49.364;7.484;2022-12-24T14:25:12;40.92;;;6.25;;
19219;SDS011;9744;49.364;7.484;2022-12-24T14:27:44;45.40;;;6.45;;
19219;SDS011;9744;49.364;7.484;2022-12-24T14:30:15;43.72;;;6.80;;
19219;SDS011;9744;49.364;7.484;2022-12-24T14:32:46;44.13;;;7.30;;
19219;SDS011;9744;49.364;7.484;2022-12-24T14:35:16;48.85;;;8.93;;
19219;SDS011;9744;49.364;7.484;2022-12-24T14:37:46;55.03;;;9.90;;
19219;SDS011;9744;49.364;7.484;2022-12-24T14:40:16;61.00;;;11.63;;
19219;SDS011;9744;49.364;7.484;2022-12-24T14:42:50;46.13;;;10.88;;
19219;SDS011;9744;49.364;7.484;2022-12-24T14:45:27;50.20;;;8.18;;
19219;SDS011;9744;49.364;7.484;2022-12-24T14:48:02;40.67;;;7.72;;
19219;SDS011;9744;49.364;7.484;2022-12-24T14:50:50;41.72;;;7.88;;
19219;SDS011;9744;49.364;7.484;2022-12-24T14:53:27;38.00;;;7.88;;
19219;SDS011;9744;49.364;7.484;2022-12-24T14:56:13;48.50;;;8.75;;
19219;SDS011;9744;49.364;7.484;2022-12-24T14:58:42;48.13;;;6.93;;
19219;SDS011;9744;49.364;7.484;2022-12-24T15:01:18;45.67;;;6.88;;
19219;SDS011;9744;49.364;7.484;2022-12-24T15:03:59;40.33;;;8.68;;
19219;SDS011;9744;49.364;7.484;2022-12-24T15:06:28;43.22;;;8.63;;
19219;SDS011;9744;49.364;7.484;2022-12-24T15:08:57;43.88;;;7.82;;
19219;SDS011;9744;49.364;7.484;2022-12-24T15:11:25;46.10;;;8.63;;
19219;SDS011;9744;49.364;7.484;2022-12-24T15:13:53;48.88;;;7.68;;
19219;SDS011;9744;49.364;7.484;2022-12-24T15:16:23;35.28;;;6.90;;
19219;SDS011;9744;49.364;7.484;2022-12-24T15:18:54;34.35;;;6.32;;
19219;SDS011;9744;49.364;7.484;2022-12-24T15:21:27;34.40;;;5.82;;
19219;SDS011;9744;49.364;7.484;2022-12-24T15:23:56;33.33;;;5.90;;
19219;SDS011;9744;49.364;7.484;2022-12-24T15:26:24;37.80;;;5.57;;
19219;SDS011;9744;49.364;7.484;2022-12-24T15:28:54;29.58;;;7.32;;
19219;SDS011;9744;49.364;7.484;2022-12-24T15:31:23;37.58;;;6.65;;
19219;SDS011;9744;49.364;7.484;2022-12-24T15:33:52;33.45;;;6.53;;